createdAt,value
2018-03-25T00:00:30.142Z,20.15
2018-03-25T00:02:58.396Z,20.73
2018-03-25T00:05:25.901Z,20.80
2018-03-25T00:07:53.467Z,21.08
2018-03-25T00:10:21.010Z,20.45
2018-03-25T00:12:48.529Z,19.52
2018-03-25T00:15:16.052Z,20.88
2018-03-25T00:17:43.572Z,21.73
2018-03-25T00:20:11.083Z,21.55
2018-03-25T00:22:38.588Z,21.67
2018-03-25T00:25:06.150Z,20.50
2018-03-25T00:27:33.802Z,21.08
2018-03-25T00:30:01.344Z,19.70
2018-03-25T00:32:28.890Z,21.00
2018-03-25T00:34:57.179Z,20.83
2018-03-25T00:37:25.449Z,21.30
2018-03-25T00:39:52.955Z,20.15
2018-03-25T00:42:20.533Z,19.75
2018-03-25T00:44:48.019Z,20.10
2018-03-25T00:47:15.572Z,19.98
2018-03-25T00:49:43.062Z,19.90
2018-03-25T00:52:10.577Z,20.85
2018-03-25T00:54:38.885Z,21.33
2018-03-25T00:57:06.395Z,20.65
2018-03-25T00:59:33.896Z,20.42
2018-03-25T01:02:02.159Z,21.48
2018-03-25T01:04:29.677Z,19.45
2018-03-25T01:06:57.175Z,19.33
2018-03-25T01:09:25.489Z,19.92
2018-03-25T01:11:52.991Z,21.02
2018-03-25T01:14:20.520Z,21.20
2018-03-25T01:16:48.467Z,21.58
2018-03-25T01:19:16.746Z,21.85
2018-03-25T01:21:44.260Z,20.27
2018-03-25T01:24:11.773Z,20.55
2018-03-25T01:26:39.261Z,22.58
2018-03-25T01:29:06.764Z,20.77
2018-03-25T01:31:34.285Z,20.17
2018-03-25T01:34:01.796Z,20.90
2018-03-25T01:36:30.079Z,20.12
2018-03-25T01:38:57.590Z,22.62
2018-03-25T01:41:25.537Z,19.90
2018-03-25T01:43:53.031Z,21.00
2018-03-25T01:46:20.553Z,21.52
2018-03-25T01:48:48.052Z,21.20
2018-03-25T01:51:15.546Z,21.70
2018-03-25T01:53:45.478Z,21.25
2018-03-25T01:56:12.972Z,21.10
2018-03-25T01:58:40.496Z,21.50
2018-03-25T02:01:08.032Z,21.87
2018-03-25T02:03:36.313Z,21.60
2018-03-25T02:06:04.575Z,20.45
2018-03-25T02:08:32.143Z,19.85
2018-03-25T02:10:59.637Z,21.80
2018-03-25T02:13:27.141Z,21.87
2018-03-25T02:15:54.662Z,22.30
2018-03-25T02:18:22.929Z,22.33
2018-03-25T02:20:50.464Z,20.60
2018-03-25T02:23:18.800Z,21.95
2018-03-25T02:25:46.322Z,21.73
2018-03-25T02:28:13.824Z,20.17
2018-03-25T02:30:41.359Z,21.55
2018-03-25T02:33:08.881Z,20.85
2018-03-25T02:35:37.384Z,22.55
2018-03-25T02:38:04.920Z,19.60
2018-03-25T02:40:33.219Z,21.42
2018-03-25T02:43:00.768Z,24.35
2018-03-25T02:45:29.025Z,23.48
2018-03-25T02:47:56.833Z,22.10
2018-03-25T02:50:24.339Z,20.62
2018-03-25T02:52:51.870Z,22.45
2018-03-25T02:55:19.523Z,23.17
2018-03-25T02:57:47.091Z,22.67
2018-03-25T03:00:14.629Z,21.30
2018-03-25T03:02:42.129Z,24.48
2018-03-25T03:05:09.664Z,22.85
2018-03-25T03:07:37.182Z,22.73
2018-03-25T03:10:05.459Z,23.02
2018-03-25T03:12:33.734Z,22.40
2018-03-25T03:15:01.268Z,22.52
2018-03-25T03:17:28.805Z,25.55
2018-03-25T03:19:56.330Z,24.27
2018-03-25T03:22:24.050Z,23.77
2018-03-25T03:24:51.552Z,22.87
2018-03-25T03:27:19.079Z,22.67
2018-03-25T03:29:46.578Z,22.33
2018-03-25T03:32:14.094Z,22.42
2018-03-25T03:34:41.678Z,23.23
2018-03-25T03:37:09.200Z,23.55
2018-03-25T03:39:36.693Z,22.45
2018-03-25T03:42:04.187Z,22.58
2018-03-25T03:44:31.715Z,23.50
2018-03-25T03:46:59.445Z,22.77
2018-03-25T03:49:26.982Z,22.52
2018-03-25T03:51:54.486Z,21.12
2018-03-25T03:54:22.271Z,23.87
2018-03-25T03:56:50.572Z,22.87
2018-03-25T03:59:18.092Z,22.05
2018-03-25T04:01:46.527Z,22.30
2018-03-25T04:04:14.033Z,22.23
2018-03-25T04:06:41.546Z,21.35
2018-03-25T04:09:09.155Z,25.00
2018-03-25T04:11:36.671Z,23.05
2018-03-25T04:14:04.176Z,22.87
2018-03-25T04:16:32.472Z,23.58
2018-03-25T04:19:00.719Z,22.13
2018-03-25T04:21:28.243Z,24.30
2018-03-25T04:23:55.746Z,24.85
2018-03-25T04:26:23.264Z,23.33
2018-03-25T04:28:50.767Z,23.52
2018-03-25T04:31:18.283Z,21.90
2018-03-25T04:33:46.792Z,23.62
2018-03-25T04:36:15.139Z,23.87
2018-03-25T04:38:42.678Z,21.50
2018-03-25T04:41:10.944Z,23.00
2018-03-25T04:43:38.499Z,22.23
2018-03-25T04:46:06.759Z,22.98
2018-03-25T04:48:34.271Z,25.70
2018-03-25T04:51:01.829Z,23.73
2018-03-25T04:53:29.343Z,22.15
2018-03-25T04:55:56.891Z,20.52
2018-03-25T04:58:24.391Z,23.00
2018-03-25T05:00:52.740Z,20.50
2018-03-25T05:03:20.236Z,20.02
2018-03-25T05:05:47.752Z,22.00
2018-03-25T05:08:15.244Z,20.95
2018-03-25T05:10:42.781Z,22.60
2018-03-25T05:13:10.317Z,21.25
2018-03-25T05:15:37.832Z,20.23
2018-03-25T05:18:05.346Z,21.73
2018-03-25T05:20:32.831Z,19.92
2018-03-25T05:23:01.110Z,23.10
2018-03-25T05:25:29.380Z,21.23
2018-03-25T05:27:56.946Z,20.15
2018-03-25T05:30:25.212Z,23.00
2018-03-25T05:32:53.484Z,20.73
2018-03-25T05:35:20.984Z,23.58
2018-03-25T05:37:48.499Z,21.25
2018-03-25T05:40:16.005Z,22.20
2018-03-25T05:42:43.512Z,20.27
2018-03-25T05:45:11.244Z,21.70
2018-03-25T05:47:38.801Z,24.23
2018-03-25T05:50:06.318Z,21.27
2018-03-25T05:52:34.583Z,21.67
2018-03-25T05:55:02.082Z,21.30
2018-03-25T05:57:29.594Z,22.37
2018-03-25T05:59:57.105Z,21.27
2018-03-25T06:02:25.385Z,21.95
2018-03-25T06:04:52.952Z,23.25
2018-03-25T06:07:21.535Z,21.75
2018-03-25T06:09:49.925Z,22.05
2018-03-25T06:12:17.427Z,24.23
2018-03-25T06:14:45.709Z,20.37
2018-03-25T06:17:13.407Z,22.92
2018-03-25T06:19:40.929Z,21.30
2018-03-25T06:22:08.451Z,24.33
2018-03-25T06:24:35.966Z,21.10
2018-03-25T06:27:04.228Z,20.73
2018-03-25T06:29:32.336Z,21.55
2018-03-25T06:31:59.843Z,20.35
2018-03-25T06:34:27.372Z,20.85
2018-03-25T06:36:54.972Z,21.05
2018-03-25T06:39:22.493Z,20.50
2018-03-25T06:41:49.996Z,20.30
2018-03-25T06:44:17.483Z,22.17
2018-03-25T06:46:45.005Z,23.25
2018-03-25T06:49:12.520Z,21.87
2018-03-25T06:51:40.030Z,22.70
2018-03-25T06:54:07.540Z,22.75
2018-03-25T06:56:35.063Z,18.37
2018-03-25T06:59:03.398Z,21.12
2018-03-25T07:01:30.916Z,22.05
2018-03-25T07:03:59.205Z,21.48
2018-03-25T07:06:26.696Z,21.70
2018-03-25T07:08:54.215Z,19.62
2018-03-25T07:11:22.472Z,20.08
2018-03-25T07:13:50.768Z,19.83
2018-03-25T07:16:18.259Z,20.88
2018-03-25T07:18:45.775Z,19.10
2018-03-25T07:21:14.040Z,17.73
2018-03-25T07:23:41.534Z,19.55
2018-03-25T07:26:09.070Z,19.05
2018-03-25T07:28:36.591Z,18.90
2018-03-25T07:31:04.116Z,19.65
2018-03-25T07:33:31.630Z,19.52
2018-03-25T07:35:59.152Z,19.05
2018-03-25T07:38:26.672Z,18.73
2018-03-25T07:40:54.954Z,17.75
2018-03-25T07:43:22.459Z,16.73
2018-03-25T07:45:49.961Z,17.37
2018-03-25T07:48:18.240Z,17.70
2018-03-25T07:50:45.763Z,17.45
2018-03-25T07:53:13.319Z,18.75
2018-03-25T07:55:40.834Z,17.37
2018-03-25T07:58:08.379Z,18.55
2018-03-25T08:00:36.648Z,19.90
2018-03-25T08:03:04.940Z,16.45
2018-03-25T08:05:33.260Z,18.02
2018-03-25T08:08:00.756Z,17.90
2018-03-25T08:10:28.284Z,17.08
2018-03-25T08:12:55.801Z,20.15
2018-03-25T08:15:24.091Z,17.10
2018-03-25T08:17:51.603Z,14.45
2018-03-25T08:20:19.105Z,16.02
2018-03-25T08:22:46.619Z,14.75
2018-03-25T08:25:14.129Z,15.18
2018-03-25T08:27:41.671Z,16.58
2018-03-25T08:30:09.941Z,15.90
2018-03-25T08:32:38.230Z,14.70
2018-03-25T08:35:06.534Z,16.50
2018-03-25T08:37:34.033Z,15.00
2018-03-25T08:40:01.544Z,16.23
2018-03-25T08:42:29.217Z,16.33
2018-03-25T08:44:56.731Z,17.87
2018-03-25T08:47:24.249Z,17.25
2018-03-25T08:49:51.768Z,15.73
2018-03-25T08:52:20.040Z,14.50
2018-03-25T08:54:47.552Z,17.08
2018-03-25T08:57:15.081Z,14.40
2018-03-25T08:59:42.653Z,15.75
2018-03-25T09:02:10.170Z,16.85
2018-03-25T09:04:37.701Z,16.08
2018-03-25T09:07:05.241Z,16.58
2018-03-25T09:09:32.759Z,16.20
2018-03-25T09:12:01.023Z,15.93
2018-03-25T09:14:28.574Z,15.93
2018-03-25T09:16:56.098Z,16.20
2018-03-25T09:19:23.636Z,16.23
2018-03-25T09:21:51.878Z,15.57
2018-03-25T09:24:19.414Z,14.32
2018-03-25T09:26:47.047Z,16.42
2018-03-25T09:29:14.550Z,16.48
2018-03-25T09:31:42.076Z,16.60
2018-03-25T09:34:09.591Z,16.15
2018-03-25T09:36:37.892Z,16.40
2018-03-25T09:39:05.407Z,14.13
2018-03-25T09:41:32.954Z,16.52
2018-03-25T09:44:00.484Z,16.70
2018-03-25T09:46:28.034Z,15.00
2018-03-25T09:48:56.485Z,14.85
2018-03-25T09:51:24.015Z,15.20
2018-03-25T09:53:51.557Z,14.50
2018-03-25T09:56:19.075Z,15.52
2018-03-25T09:58:47.376Z,16.00
2018-03-25T10:01:14.893Z,15.88
2018-03-25T10:03:42.424Z,14.73
2018-03-25T10:06:09.934Z,15.80
2018-03-25T10:08:37.492Z,15.70
2018-03-25T10:11:05.780Z,15.82
2018-03-25T10:13:34.840Z,16.48
2018-03-25T10:16:02.695Z,16.85
2018-03-25T10:18:30.200Z,15.68
2018-03-25T10:20:58.016Z,14.85
2018-03-25T10:23:26.668Z,18.83
2018-03-25T10:25:55.862Z,16.67
2018-03-25T10:28:23.434Z,18.27
2018-03-25T10:30:50.944Z,17.67
2018-03-25T10:33:18.464Z,18.15
2018-03-25T10:35:46.839Z,18.23
2018-03-25T10:38:14.370Z,18.55
2018-03-25T10:40:41.891Z,19.33
2018-03-25T10:43:09.450Z,17.95
2018-03-25T10:45:37.021Z,18.77
2018-03-25T10:48:05.303Z,19.83
2018-03-25T10:50:33.672Z,19.23
2018-03-25T10:53:01.184Z,18.87
2018-03-25T10:55:28.724Z,17.58
2018-03-25T10:57:56.247Z,18.92
2018-03-25T11:00:23.774Z,17.70
2018-03-25T11:02:51.295Z,18.77
2018-03-25T11:05:19.613Z,19.40
2018-03-25T11:07:47.175Z,18.73
2018-03-25T11:10:14.752Z,18.33
2018-03-25T11:12:42.293Z,18.58
2018-03-25T11:15:09.895Z,19.27
2018-03-25T11:17:37.764Z,18.37
2018-03-25T11:20:06.044Z,18.90
2018-03-25T11:22:34.383Z,18.00
2018-03-25T11:25:01.925Z,18.10
2018-03-25T11:27:29.446Z,19.58
2018-03-25T11:29:56.948Z,17.40
2018-03-25T11:32:24.443Z,20.15
2018-03-25T11:34:51.977Z,18.33
2018-03-25T11:37:19.491Z,20.23
2018-03-25T11:39:47.802Z,19.83
2018-03-25T11:42:15.343Z,17.52
2018-03-25T11:44:42.924Z,17.60
2018-03-25T11:47:10.494Z,19.80
2018-03-25T11:49:37.997Z,17.30
2018-03-25T11:52:05.519Z,17.87
2018-03-25T11:54:33.036Z,17.67
2018-03-25T11:57:01.330Z,18.90
2018-03-25T11:59:29.756Z,18.27
2018-03-25T12:01:57.296Z,17.85
2018-03-25T12:04:24.819Z,18.95
2018-03-25T12:06:53.103Z,19.42
2018-03-25T12:09:21.432Z,18.10
2018-03-25T12:11:48.928Z,19.17
2018-03-25T12:14:17.219Z,17.50
2018-03-25T12:16:44.723Z,17.23
2018-03-25T12:19:12.276Z,19.25
2018-03-25T12:21:39.795Z,18.12
2018-03-25T12:24:07.294Z,17.45
2018-03-25T12:26:34.844Z,16.90
2018-03-25T12:29:02.375Z,19.58
2018-03-25T12:31:29.915Z,17.42
2018-03-25T12:33:58.216Z,18.80
2018-03-25T12:36:25.747Z,15.93
2018-03-25T12:38:53.272Z,17.30
2018-03-25T12:41:21.729Z,17.08
2018-03-25T12:43:49.255Z,17.65
2018-03-25T12:46:16.783Z,18.08
2018-03-25T12:48:44.310Z,17.35
2018-03-25T12:51:11.831Z,17.42
2018-03-25T12:53:40.137Z,18.70
2018-03-25T12:56:08.180Z,18.85
2018-03-25T12:58:36.486Z,17.35
2018-03-25T13:01:04.045Z,17.17
2018-03-25T13:03:31.600Z,18.90
2018-03-25T13:05:59.108Z,19.17
2018-03-25T13:08:26.627Z,19.40
2018-03-25T13:10:54.164Z,18.83
2018-03-25T13:13:21.708Z,17.87
2018-03-25T13:15:49.324Z,17.35
2018-03-25T13:18:17.554Z,17.23
2018-03-25T13:20:45.844Z,17.95
2018-03-25T13:23:14.125Z,18.05
2018-03-25T13:25:41.891Z,17.33
2018-03-25T13:28:10.202Z,18.95
2018-03-25T13:30:37.770Z,18.58
2018-03-25T13:33:05.308Z,18.45
2018-03-25T13:35:32.986Z,17.05
2018-03-25T13:38:00.527Z,19.37
2018-03-25T13:40:28.100Z,18.67
2018-03-25T13:42:55.671Z,17.55
2018-03-25T13:45:23.407Z,17.58
2018-03-25T13:47:52.802Z,17.25
2018-03-25T13:50:21.105Z,17.87
2018-03-25T13:52:48.616Z,18.60
2018-03-25T13:55:16.145Z,18.30
2018-03-25T13:57:43.688Z,18.48
2018-03-25T14:00:11.274Z,17.90
2018-03-25T14:02:38.816Z,17.35
2018-03-25T14:05:06.330Z,17.08
2018-03-25T14:07:34.623Z,18.60
2018-03-25T14:10:02.990Z,17.52
2018-03-25T14:12:31.287Z,16.75
2018-03-25T14:14:58.830Z,18.40
2018-03-25T14:17:27.150Z,16.73
2018-03-25T14:19:54.711Z,17.85
2018-03-25T14:22:22.251Z,17.23
2018-03-25T14:24:49.772Z,16.73
2018-03-25T14:27:18.103Z,16.17
2018-03-25T14:29:45.632Z,17.67
2018-03-25T14:32:13.908Z,16.92
2018-03-25T14:34:42.206Z,16.60
2018-03-25T14:37:09.721Z,17.25
2018-03-25T14:39:37.784Z,17.65
2018-03-25T14:42:05.306Z,19.02
2018-03-25T14:44:32.872Z,17.95
2018-03-25T14:47:00.395Z,16.87
2018-03-25T14:49:28.673Z,16.58
2018-03-25T14:51:57.003Z,18.00
2018-03-25T14:54:25.285Z,16.58
2018-03-25T14:56:52.847Z,17.27
2018-03-25T14:59:20.372Z,18.02
2018-03-25T15:01:47.906Z,17.40
2018-03-25T15:04:16.223Z,18.08
2018-03-25T15:06:43.773Z,17.90
2018-03-25T15:09:11.344Z,17.65
2018-03-25T15:11:38.871Z,19.05
2018-03-25T15:14:07.188Z,18.70
2018-03-25T15:16:35.509Z,19.08
2018-03-25T15:19:03.041Z,17.58
2018-03-25T15:21:30.555Z,17.12
2018-03-25T15:23:58.846Z,17.80
2018-03-25T15:26:26.361Z,17.65
2018-03-25T15:28:53.888Z,17.45
2018-03-25T15:31:21.423Z,17.77
2018-03-25T15:33:48.988Z,17.83
2018-03-25T15:36:17.307Z,17.40
2018-03-25T15:38:44.808Z,18.92
2018-03-25T15:41:12.407Z,17.37
2018-03-25T15:43:39.903Z,18.15
2018-03-25T15:46:07.457Z,18.17
2018-03-25T15:48:34.977Z,16.58
2018-03-25T15:51:02.556Z,17.92
2018-03-25T15:53:30.466Z,17.70
2018-03-25T15:55:58.019Z,16.77
2018-03-25T15:58:25.535Z,16.58
2018-03-25T16:00:53.263Z,15.88
2018-03-25T16:03:21.560Z,16.02
2018-03-25T16:05:49.114Z,15.90
2018-03-25T16:08:16.689Z,17.25
2018-03-25T16:10:44.207Z,15.27
2018-03-25T16:13:12.489Z,16.48
2018-03-25T16:15:40.771Z,16.83
2018-03-25T16:18:08.285Z,15.50
2018-03-25T16:20:35.811Z,16.50
2018-03-25T16:23:03.331Z,16.65
2018-03-25T16:25:30.896Z,15.50
2018-03-25T16:27:58.406Z,17.70
2018-03-25T16:30:27.634Z,18.87
2018-03-25T16:32:55.160Z,18.65
2018-03-25T16:35:22.682Z,22.00
2018-03-25T16:37:50.970Z,19.27
2018-03-25T16:40:19.247Z,19.58
2018-03-25T16:42:47.536Z,18.67
2018-03-25T16:45:15.044Z,19.35
2018-03-25T16:47:43.345Z,21.27
2018-03-25T16:50:11.627Z,18.90
2018-03-25T16:52:39.920Z,18.12
2018-03-25T16:55:07.559Z,20.23
2018-03-25T16:57:35.036Z,19.42
2018-03-25T17:00:03.307Z,19.90
2018-03-25T17:02:31.592Z,20.37
2018-03-25T17:04:59.876Z,18.00
2018-03-25T17:07:28.144Z,19.35
2018-03-25T17:09:56.436Z,18.90
2018-03-25T17:12:23.936Z,17.65
2018-03-25T17:14:51.495Z,17.98
2018-03-25T17:17:18.996Z,19.05
2018-03-25T17:19:47.319Z,18.00
2018-03-25T17:22:14.816Z,16.80
2018-03-25T17:24:42.336Z,18.50
2018-03-25T17:27:10.695Z,16.52
2018-03-25T17:29:38.211Z,16.60
2018-03-25T17:32:05.833Z,16.37
2018-03-25T17:34:33.327Z,18.12
2018-03-25T17:37:00.840Z,17.87
2018-03-25T17:39:28.357Z,18.52
2018-03-25T17:41:55.879Z,15.27
2018-03-25T17:44:23.389Z,16.50
2018-03-25T17:46:50.942Z,16.50
2018-03-25T17:49:18.422Z,16.42
2018-03-25T17:51:46.703Z,16.33
2018-03-25T17:54:14.217Z,16.05
2018-03-25T17:56:41.709Z,17.17
2018-03-25T17:59:09.987Z,16.87
2018-03-25T18:01:38.839Z,16.48
2018-03-25T18:04:06.414Z,15.98
2018-03-25T18:06:33.927Z,16.12
2018-03-25T18:09:01.435Z,15.32
2018-03-25T18:11:28.951Z,16.40
2018-03-25T18:13:56.493Z,15.18
2018-03-25T18:16:23.964Z,15.00
2018-03-25T18:18:51.467Z,16.12
2018-03-25T18:21:18.997Z,14.35
2018-03-25T18:23:46.524Z,15.13
2018-03-25T18:26:14.094Z,13.62
2018-03-25T18:28:41.671Z,14.98
2018-03-25T18:31:09.564Z,16.12
2018-03-25T18:33:37.176Z,14.20
2018-03-25T18:36:04.680Z,15.45
2018-03-25T18:38:32.257Z,15.07
2018-03-25T18:40:59.789Z,14.75
2018-03-25T18:43:27.311Z,13.77
2018-03-25T18:45:55.576Z,15.45
2018-03-25T18:48:23.124Z,13.98
2018-03-25T18:50:50.706Z,14.45
2018-03-25T18:53:18.978Z,14.18
2018-03-25T18:55:47.275Z,14.38
2018-03-25T18:58:14.827Z,13.73
2018-03-25T19:00:43.138Z,14.85
2018-03-25T19:03:10.701Z,13.95
2018-03-25T19:05:38.211Z,15.40
2018-03-25T19:08:05.742Z,14.50
2018-03-25T19:10:33.290Z,14.85
2018-03-25T19:13:00.829Z,15.95
2018-03-25T19:15:29.050Z,15.38
2018-03-25T19:17:56.580Z,15.15
2018-03-25T19:20:24.090Z,13.93
2018-03-25T19:22:53.125Z,15.90
2018-03-25T19:25:20.613Z,16.27
2018-03-25T19:27:48.133Z,15.25
2018-03-25T19:30:15.637Z,14.40
2018-03-25T19:32:43.159Z,15.55
2018-03-25T19:35:10.674Z,16.17
2018-03-25T19:37:38.951Z,14.93
2018-03-25T19:40:06.485Z,15.40
2018-03-25T19:42:33.987Z,15.50
2018-03-25T19:45:02.299Z,15.02
2018-03-25T19:47:29.798Z,15.98
2018-03-25T19:49:57.911Z,15.60
2018-03-25T19:52:25.429Z,14.85
2018-03-25T19:54:52.946Z,15.75
2018-03-25T19:57:20.487Z,17.12
2018-03-25T19:59:48.018Z,15.55
2018-03-25T20:02:15.528Z,15.88
2018-03-25T20:04:43.033Z,16.33
2018-03-25T20:07:10.568Z,16.42
2018-03-25T20:09:38.110Z,16.23
2018-03-25T20:12:06.351Z,15.20
2018-03-25T20:14:34.617Z,16.20
2018-03-25T20:17:02.156Z,15.15
2018-03-25T20:19:29.661Z,15.38
2018-03-25T20:21:57.167Z,15.05
2018-03-25T20:24:24.680Z,16.02
2018-03-25T20:26:52.195Z,18.80
2018-03-25T20:29:19.718Z,16.87
2018-03-25T20:31:47.246Z,15.82
2018-03-25T20:34:14.780Z,14.95
2018-03-25T20:36:42.272Z,16.98
2018-03-25T20:39:09.797Z,15.30
2018-03-25T20:41:37.312Z,15.45
2018-03-25T20:44:04.926Z,15.75
2018-03-25T20:46:32.449Z,15.77
2018-03-25T20:48:59.944Z,15.60
2018-03-25T20:51:27.494Z,16.70
2018-03-25T20:53:54.987Z,15.70
2018-03-25T20:56:23.296Z,14.57
2018-03-25T20:58:50.804Z,16.60
2018-03-25T21:01:18.347Z,15.68
2018-03-25T21:03:45.972Z,15.18
2018-03-25T21:06:13.476Z,16.98
2018-03-25T21:08:41.004Z,16.52
2018-03-25T21:11:08.501Z,17.15
2018-03-25T21:13:36.026Z,17.33
2018-03-25T21:16:03.520Z,18.23
2018-03-25T21:18:31.088Z,17.98
2018-03-25T21:20:58.577Z,16.15
2018-03-25T21:23:26.159Z,16.05
2018-03-25T21:25:53.672Z,17.55
2018-03-25T21:28:21.951Z,15.55
2018-03-25T21:30:50.230Z,16.70
2018-03-25T21:33:17.731Z,17.10
2018-03-25T21:35:45.264Z,16.27
2018-03-25T21:38:12.756Z,17.90
2018-03-25T21:40:40.267Z,17.60
2018-03-25T21:43:08.552Z,16.70
2018-03-25T21:45:36.855Z,18.27
2018-03-25T21:48:04.351Z,16.35
2018-03-25T21:50:31.878Z,17.27
2018-03-25T21:52:59.408Z,18.10
2018-03-25T21:55:26.919Z,17.15
2018-03-25T21:57:54.443Z,16.17
2018-03-25T22:00:21.938Z,17.58
2018-03-25T22:02:49.457Z,18.35
2018-03-25T22:05:16.958Z,16.65
2018-03-25T22:07:44.512Z,17.02
2018-03-25T22:10:12.021Z,18.08
2018-03-25T22:12:40.309Z,16.55
2018-03-25T22:15:07.823Z,18.23
2018-03-25T22:17:35.351Z,17.50
2018-03-25T22:20:02.884Z,17.23
2018-03-25T22:22:31.725Z,17.00
2018-03-25T22:25:00.052Z,17.55
2018-03-25T22:27:28.337Z,18.73
2018-03-25T22:29:55.869Z,16.67
2018-03-25T22:32:23.371Z,17.27
2018-03-25T22:34:50.903Z,16.30
2018-03-25T22:37:19.607Z,17.80
2018-03-25T22:39:47.124Z,18.83
2018-03-25T22:42:14.765Z,17.92
2018-03-25T22:44:42.271Z,18.42
2018-03-25T22:47:10.572Z,18.48
2018-03-25T22:49:38.096Z,17.05
2018-03-25T22:52:05.632Z,17.55
2018-03-25T22:54:33.133Z,19.67
2018-03-25T22:57:00.656Z,17.30
2018-03-25T22:59:28.916Z,16.05
2018-03-25T23:01:56.426Z,17.98
2018-03-25T23:04:24.695Z,16.75
2018-03-25T23:06:52.179Z,18.33
2018-03-25T23:09:19.727Z,17.70
2018-03-25T23:11:48.004Z,18.60
2018-03-25T23:14:16.289Z,16.80
2018-03-25T23:16:43.779Z,16.65
2018-03-25T23:19:11.435Z,17.48
2018-03-25T23:21:38.949Z,17.92
2018-03-25T23:24:07.233Z,17.85
2018-03-25T23:26:35.519Z,16.60
2018-03-25T23:29:03.811Z,16.90
2018-03-25T23:31:31.379Z,20.12
2018-03-25T23:33:58.883Z,18.90
2018-03-25T23:36:26.443Z,17.50
2018-03-25T23:38:53.967Z,17.48
2018-03-25T23:41:21.469Z,17.27
2018-03-25T23:43:48.979Z,18.67
2018-03-25T23:46:16.492Z,17.48
2018-03-25T23:48:44.032Z,17.50
2018-03-25T23:51:11.542Z,18.40
2018-03-25T23:53:39.079Z,17.55
2018-03-25T23:56:07.382Z,17.80
2018-03-25T23:58:34.912Z,18.30
